createdAt,value
2018-06-01T00:01:53.412Z,1.73
2018-06-01T00:04:20.147Z,1.83
2018-06-01T00:06:46.840Z,1.80
2018-06-01T00:09:17.205Z,1.73
2018-06-01T00:11:44.174Z,1.87
2018-06-01T00:14:10.880Z,1.90
2018-06-01T00:16:37.600Z,1.70
2018-06-01T00:19:04.302Z,2.13
2018-06-01T00:21:31.008Z,2.00
2018-06-01T00:23:57.705Z,1.90
2018-06-01T00:26:24.460Z,2.10
2018-06-01T00:28:51.152Z,1.90
2018-06-01T00:31:17.860Z,1.80
2018-06-01T00:33:44.575Z,1.70
2018-06-01T00:36:11.279Z,1.73
2018-06-01T00:38:38.015Z,1.67
2018-06-01T00:41:04.751Z,1.90
2018-06-01T00:43:31.448Z,1.77
2018-06-01T00:45:58.143Z,1.97
2018-06-01T00:48:24.847Z,2.00
2018-06-01T00:50:51.572Z,1.60
2018-06-01T00:53:18.274Z,1.80
2018-06-01T00:55:44.972Z,1.87
2018-06-01T00:58:11.725Z,1.90
2018-06-01T01:00:38.448Z,1.67
2018-06-01T01:03:05.153Z,2.03
2018-06-01T01:05:31.895Z,1.80
2018-06-01T01:07:58.604Z,2.00
2018-06-01T01:10:25.303Z,1.90
2018-06-01T01:12:52.035Z,1.87
2018-06-01T01:15:18.729Z,1.83
2018-06-01T01:17:45.433Z,1.83
2018-06-01T01:20:12.159Z,1.97
2018-06-01T01:22:38.859Z,1.70
2018-06-01T01:25:05.577Z,1.60
2018-06-01T01:27:33.139Z,1.87
2018-06-01T01:29:59.851Z,1.67
2018-06-01T01:32:26.560Z,1.80
2018-06-01T01:34:53.255Z,1.67
2018-06-01T01:37:25.871Z,1.60
2018-06-01T01:39:52.613Z,1.60
2018-06-01T01:42:19.329Z,1.80
2018-06-01T01:44:46.038Z,1.90
2018-06-01T01:47:12.744Z,1.70
2018-06-01T01:49:39.444Z,1.87
2018-06-01T01:52:06.195Z,1.80
2018-06-01T01:54:32.987Z,1.90
2018-06-01T01:56:59.691Z,1.70
2018-06-01T01:59:26.402Z,1.90
2018-06-01T02:01:53.106Z,2.00
2018-06-01T02:04:19.824Z,1.70
2018-06-01T02:06:46.527Z,1.70
2018-06-01T02:09:13.248Z,1.90
2018-06-01T02:11:39.952Z,1.70
2018-06-01T02:14:06.672Z,1.90
2018-06-01T02:16:33.403Z,1.80
2018-06-01T02:19:00.107Z,2.10
2018-06-01T02:21:26.832Z,1.73
2018-06-01T02:23:53.528Z,1.80
2018-06-01T02:26:20.402Z,1.80
2018-06-01T02:28:47.136Z,1.87
2018-06-01T02:31:13.840Z,1.70
2018-06-01T02:33:40.544Z,1.80
2018-06-01T02:36:07.244Z,1.93
2018-06-01T02:38:33.952Z,1.80
2018-06-01T02:41:00.680Z,1.80
2018-06-01T02:43:27.386Z,1.73
2018-06-01T02:45:54.088Z,1.77
2018-06-01T02:48:20.783Z,1.50
2018-06-01T02:50:47.496Z,2.00
2018-06-01T02:53:14.236Z,1.90
2018-06-01T02:55:40.940Z,2.13
2018-06-01T02:58:07.644Z,1.67
2018-06-01T03:00:34.661Z,1.70
2018-06-01T03:03:01.360Z,1.90
2018-06-01T03:05:28.085Z,1.67
2018-06-01T03:07:54.779Z,1.70
2018-06-01T03:10:21.489Z,1.50
2018-06-01T03:12:48.188Z,1.60
2018-06-01T03:15:14.894Z,1.70
2018-06-01T03:17:41.615Z,1.73
2018-06-01T03:20:08.319Z,1.80
2018-06-01T03:22:35.055Z,2.10
2018-06-01T03:25:01.857Z,2.03
2018-06-01T03:27:28.561Z,2.20
2018-06-01T03:29:55.287Z,1.93
2018-06-01T03:32:21.989Z,1.90
2018-06-01T03:34:48.695Z,1.80
2018-06-01T03:37:15.400Z,2.03
2018-06-01T03:39:42.106Z,2.10
2018-06-01T03:42:08.834Z,2.07
2018-06-01T03:44:35.533Z,1.90
2018-06-01T03:47:02.240Z,2.23
2018-06-01T03:49:29.050Z,1.90
2018-06-01T03:51:55.893Z,1.60
2018-06-01T03:54:22.624Z,1.73
2018-06-01T03:56:49.330Z,1.90
2018-06-01T03:59:16.114Z,1.67
2018-06-01T04:01:42.807Z,1.80
2018-06-01T04:04:09.506Z,1.93
2018-06-01T04:06:36.242Z,1.90
2018-06-01T04:09:02.951Z,1.90
2018-06-01T04:11:29.679Z,1.80
2018-06-01T04:13:56.391Z,1.70
2018-06-01T04:16:23.088Z,1.80
2018-06-01T04:18:49.811Z,1.83
2018-06-01T04:21:16.912Z,1.70
2018-06-01T04:23:43.628Z,1.70
2018-06-01T04:26:10.328Z,1.93
2018-06-01T04:28:37.024Z,1.90
2018-06-01T04:31:03.759Z,1.80
2018-06-01T04:33:30.486Z,1.60
2018-06-01T04:35:57.187Z,2.00
2018-06-01T04:38:23.927Z,1.70
2018-06-01T04:40:50.730Z,1.87
2018-06-01T04:43:17.464Z,1.63
2018-06-01T04:45:44.219Z,1.97
2018-06-01T04:48:10.943Z,1.97
2018-06-01T04:50:37.723Z,1.63
2018-06-01T04:53:04.505Z,1.87
2018-06-01T04:55:31.289Z,1.70
2018-06-01T04:57:58.115Z,1.60
2018-06-01T05:00:24.815Z,1.70
2018-06-01T05:02:51.620Z,1.70
2018-06-01T05:05:19.053Z,1.60
2018-06-01T05:07:45.803Z,1.60
2018-06-01T05:10:12.583Z,1.50
2018-06-01T05:12:39.339Z,1.50
2018-06-01T05:15:06.073Z,1.50
2018-06-01T05:17:32.763Z,1.40
2018-06-01T05:19:59.502Z,1.30
2018-06-01T05:22:26.196Z,1.90
2018-06-01T05:24:52.891Z,1.40
2018-06-01T05:27:19.607Z,1.30
2018-06-01T05:29:46.319Z,1.30
2018-06-01T05:32:13.051Z,1.50
2018-06-01T05:34:39.769Z,1.40
2018-06-01T05:37:06.480Z,1.30
2018-06-01T05:39:33.249Z,1.30
2018-06-01T05:41:59.991Z,1.40
2018-06-01T05:44:26.770Z,1.50
2018-06-01T05:46:54.280Z,1.43
2018-06-01T05:49:20.995Z,1.33
2018-06-01T05:51:47.727Z,1.20
2018-06-01T05:54:14.435Z,1.20
2018-06-01T05:56:41.247Z,1.13
2018-06-01T05:59:07.947Z,1.27
2018-06-01T06:01:34.659Z,1.30
2018-06-01T06:04:01.383Z,1.30
2018-06-01T06:06:28.983Z,1.00
2018-06-01T06:08:55.710Z,1.13
2018-06-01T06:11:22.408Z,1.07
2018-06-01T06:13:49.120Z,1.10
2018-06-01T06:16:15.837Z,1.10
2018-06-01T06:18:42.646Z,1.40
2018-06-01T06:21:09.347Z,1.30
2018-06-01T06:23:36.172Z,1.10
2018-06-01T06:26:03.091Z,1.20
2018-06-01T06:28:29.920Z,1.13
2018-06-01T06:30:56.865Z,1.30
2018-06-01T06:33:23.579Z,1.13
2018-06-01T06:35:50.320Z,1.10
2018-06-01T06:38:17.038Z,1.43
2018-06-01T06:40:43.752Z,1.10
2018-06-01T06:43:10.490Z,1.40
2018-06-01T06:45:37.183Z,1.50
2018-06-01T06:48:03.977Z,1.20
2018-06-01T06:50:30.716Z,1.13
2018-06-01T06:52:57.423Z,1.77
2018-06-01T06:55:24.209Z,1.17
2018-06-01T06:57:50.920Z,1.40
2018-06-01T07:00:17.848Z,1.20
2018-06-01T07:02:44.568Z,1.30
2018-06-01T07:05:11.274Z,1.30
2018-06-01T07:07:37.974Z,1.20
2018-06-01T07:10:04.679Z,1.40
2018-06-01T07:12:31.415Z,1.47
2018-06-01T07:14:58.127Z,1.77
2018-06-01T07:17:24.875Z,1.30
2018-06-01T07:19:51.583Z,1.30
2018-06-01T07:22:18.304Z,1.60
2018-06-01T07:24:45.051Z,1.20
2018-06-01T07:27:11.890Z,1.30
2018-06-01T07:29:38.730Z,1.30
2018-06-01T07:32:05.427Z,1.27
2018-06-01T07:34:32.131Z,1.30
2018-06-01T07:36:58.883Z,1.17
2018-06-01T07:39:25.607Z,1.40
2018-06-01T07:41:52.341Z,1.60
2018-06-01T07:44:19.053Z,1.50
2018-06-01T07:46:45.757Z,1.47
2018-06-01T07:49:12.470Z,1.30
2018-06-01T07:51:39.172Z,1.60
2018-06-01T07:54:05.891Z,1.47
2018-06-01T07:56:32.594Z,1.27
2018-06-01T07:58:59.319Z,1.47
2018-06-01T08:01:26.027Z,1.23
2018-06-01T08:03:52.723Z,1.30
2018-06-01T08:06:19.457Z,1.30
2018-06-01T08:08:46.159Z,1.50
2018-06-01T08:11:12.867Z,1.40
2018-06-01T08:13:39.594Z,1.30
2018-06-01T08:16:06.295Z,1.50
2018-06-01T08:18:33.008Z,1.40
2018-06-01T08:20:59.965Z,1.37
2018-06-01T08:23:26.663Z,1.60
2018-06-01T08:25:53.387Z,1.30
2018-06-01T08:28:20.084Z,1.40
2018-06-01T08:30:46.784Z,1.30
2018-06-01T08:33:13.491Z,1.40
2018-06-01T08:35:40.200Z,1.43
2018-06-01T08:38:06.928Z,1.30
2018-06-01T08:40:33.623Z,1.90
2018-06-01T08:43:00.336Z,1.37
2018-06-01T08:45:27.043Z,1.60
2018-06-01T08:47:53.744Z,1.63
2018-06-01T08:50:20.471Z,1.60
2018-06-01T08:52:47.175Z,1.70
2018-06-01T08:55:13.891Z,1.33
2018-06-01T08:57:40.595Z,1.23
2018-06-01T09:00:07.293Z,1.40
2018-06-01T09:02:34.016Z,1.23
2018-06-01T09:05:00.723Z,1.47
2018-06-01T09:07:27.433Z,1.50
2018-06-01T09:09:54.152Z,1.10
2018-06-01T09:12:20.871Z,1.30
2018-06-01T09:14:47.615Z,1.20
2018-06-01T09:17:14.315Z,1.30
2018-06-01T09:19:41.015Z,1.20
2018-06-01T09:22:07.756Z,1.70
2018-06-01T09:24:34.435Z,1.50
2018-06-01T09:27:01.201Z,1.40
2018-06-01T09:29:27.903Z,1.30
2018-06-01T09:31:54.614Z,1.50
2018-06-01T09:34:21.359Z,1.60
2018-06-01T09:36:48.064Z,1.57
2018-06-01T09:39:14.789Z,1.60
2018-06-01T09:41:41.488Z,1.40
2018-06-01T09:44:08.187Z,1.50
2018-06-01T09:46:34.899Z,1.20
2018-06-01T09:49:01.604Z,1.40
2018-06-01T09:51:28.356Z,1.20
2018-06-01T09:53:55.066Z,1.30
2018-06-01T09:56:21.766Z,1.33
2018-06-01T09:58:48.472Z,1.30
2018-06-01T10:01:15.171Z,1.47
2018-06-01T10:03:41.915Z,1.30
2018-06-01T10:06:08.670Z,1.40
2018-06-01T10:08:35.383Z,1.23
2018-06-01T10:11:07.672Z,1.30
2018-06-01T10:13:34.370Z,1.40
2018-06-01T10:16:01.095Z,1.30
2018-06-01T10:18:27.790Z,1.60
2018-06-01T10:20:54.485Z,1.40
2018-06-01T10:23:21.199Z,1.40
2018-06-01T10:25:47.900Z,1.20
2018-06-01T10:28:14.632Z,1.50
2018-06-01T10:30:41.332Z,1.50
2018-06-01T10:33:08.040Z,1.30
2018-06-01T10:35:34.775Z,1.40
2018-06-01T10:38:01.492Z,1.40
2018-06-01T10:40:28.220Z,1.40
2018-06-01T10:42:54.919Z,1.48
2018-06-01T10:45:21.684Z,1.60
2018-06-01T10:47:48.366Z,1.40
2018-06-01T10:50:15.066Z,1.50
2018-06-01T10:52:42.359Z,1.60
2018-06-01T10:55:09.075Z,1.60
2018-06-01T10:57:35.796Z,1.83
2018-06-01T11:00:02.502Z,1.48
2018-06-01T11:02:29.203Z,1.40
2018-06-01T11:04:55.937Z,1.55
2018-06-01T11:07:22.643Z,1.52
2018-06-01T11:09:49.351Z,1.50
2018-06-01T11:12:16.088Z,1.62
2018-06-01T11:14:42.795Z,1.42
2018-06-01T11:17:09.535Z,1.67
2018-06-01T11:19:36.263Z,1.40
2018-06-01T11:22:02.968Z,1.30
2018-06-01T11:24:29.703Z,1.50
2018-06-01T11:26:56.418Z,1.50
2018-06-01T11:29:23.161Z,1.30
2018-06-01T11:31:49.871Z,1.62
2018-06-01T11:34:16.575Z,1.60
2018-06-01T11:36:43.271Z,1.40
2018-06-01T11:39:09.979Z,1.40
2018-06-01T11:41:36.706Z,1.50
2018-06-01T11:44:03.770Z,1.40
2018-06-01T11:46:30.467Z,1.40
2018-06-01T11:48:57.167Z,1.48
2018-06-01T11:51:23.905Z,1.30
2018-06-01T11:53:50.629Z,1.40
2018-06-01T11:56:17.539Z,1.27
2018-06-01T11:58:44.235Z,1.40
2018-06-01T12:01:14.171Z,1.40
2018-06-01T12:03:40.873Z,1.40
2018-06-01T12:06:08.795Z,1.30
2018-06-01T12:08:35.508Z,1.77
2018-06-01T12:11:02.283Z,1.70
2018-06-01T12:13:28.947Z,1.70
2018-06-01T12:15:55.679Z,1.30
2018-06-01T12:18:22.380Z,1.40
2018-06-01T12:20:49.085Z,1.60
2018-06-01T12:23:15.819Z,1.70
2018-06-01T12:25:43.297Z,1.37
2018-06-01T12:28:10.025Z,1.40
2018-06-01T12:30:36.723Z,1.70
2018-06-01T12:33:03.424Z,1.70
2018-06-01T12:35:30.123Z,1.40
2018-06-01T12:37:56.856Z,1.50
2018-06-01T12:40:23.591Z,1.40
2018-06-01T12:42:50.844Z,1.20
2018-06-01T12:45:17.588Z,1.20
2018-06-01T12:47:44.295Z,1.57
2018-06-01T12:50:10.996Z,1.30
2018-06-01T12:52:37.737Z,1.33
2018-06-01T12:55:04.437Z,1.37
2018-06-01T12:57:31.142Z,1.70
2018-06-01T13:00:05.684Z,1.23
2018-06-01T13:02:32.396Z,1.30
2018-06-01T13:05:07.456Z,1.20
2018-06-01T13:07:34.195Z,1.70
2018-06-01T13:10:00.930Z,1.63
2018-06-01T13:12:27.627Z,1.60
2018-06-01T13:14:54.329Z,1.50
2018-06-01T13:17:21.040Z,1.73
2018-06-01T13:19:47.743Z,1.70
2018-06-01T13:22:14.476Z,1.43
2018-06-01T13:24:41.207Z,1.70
2018-06-01T13:27:07.917Z,1.73
2018-06-01T13:29:34.607Z,1.57
2018-06-01T13:32:01.312Z,1.37
2018-06-01T13:34:28.040Z,1.20
2018-06-01T13:36:54.745Z,1.50
2018-06-01T13:39:21.462Z,1.40
2018-06-01T13:41:48.168Z,1.47
2018-06-01T13:44:14.869Z,1.40
2018-06-01T13:46:41.607Z,1.27
2018-06-01T13:49:08.311Z,1.40
2018-06-01T13:51:35.291Z,1.40
2018-06-01T13:54:01.998Z,1.40
2018-06-01T13:56:28.696Z,1.60
2018-06-01T13:58:55.432Z,1.73
2018-06-01T14:01:22.161Z,1.50
2018-06-01T14:03:48.863Z,1.30
2018-06-01T14:06:15.563Z,1.30
2018-06-01T14:08:43.024Z,1.77
2018-06-01T14:11:09.763Z,1.40
2018-06-01T14:13:36.472Z,1.53
2018-06-01T14:16:03.199Z,1.50
2018-06-01T14:18:29.895Z,1.57
2018-06-01T14:20:56.635Z,1.37
2018-06-01T14:23:23.364Z,1.50
2018-06-01T14:25:51.754Z,1.60
2018-06-01T14:28:19.109Z,1.40
2018-06-01T14:30:46.304Z,1.47
2018-06-01T14:33:13.956Z,1.57
2018-06-01T14:35:42.186Z,1.50
2018-06-01T14:38:08.983Z,1.60
2018-06-01T14:40:35.724Z,1.47
2018-06-01T14:43:02.431Z,1.67
2018-06-01T14:45:29.149Z,1.67
2018-06-01T14:47:55.871Z,1.50
2018-06-01T14:50:22.588Z,1.40
2018-06-01T14:52:49.304Z,1.43
2018-06-01T14:55:16.061Z,1.40
2018-06-01T14:57:42.759Z,1.20
2018-06-01T15:00:09.495Z,1.40
2018-06-01T15:02:36.201Z,1.40
2018-06-01T15:05:02.899Z,1.50
2018-06-01T15:07:29.608Z,1.50
2018-06-01T15:09:56.315Z,1.50
2018-06-01T15:12:23.048Z,1.87
2018-06-01T15:14:49.787Z,1.43
2018-06-01T15:17:16.491Z,1.47
2018-06-01T15:19:43.200Z,1.40
2018-06-01T15:22:09.907Z,1.57
2018-06-01T15:24:36.647Z,1.50
2018-06-01T15:27:03.356Z,1.40
2018-06-01T15:29:30.060Z,1.47
2018-06-01T15:31:56.860Z,1.27
2018-06-01T15:34:23.559Z,1.57
2018-06-01T15:36:50.269Z,1.20
2018-06-01T15:39:16.982Z,1.57
2018-06-01T15:41:43.688Z,1.30
2018-06-01T15:44:10.393Z,1.43
2018-06-01T15:46:37.103Z,1.57
2018-06-01T15:49:03.851Z,1.60
2018-06-01T15:51:30.575Z,1.47
2018-06-01T15:53:57.304Z,1.57
2018-06-01T15:56:24.008Z,1.53
2018-06-01T15:58:50.703Z,1.57
2018-06-01T16:01:17.439Z,1.50
2018-06-01T16:03:44.144Z,1.50
2018-06-01T16:06:10.843Z,1.60
2018-06-01T16:08:37.559Z,1.40
2018-06-01T16:11:04.287Z,1.50
2018-06-01T16:13:31.003Z,1.30
2018-06-01T16:15:57.869Z,1.60
2018-06-01T16:18:24.574Z,1.90
2018-06-01T16:20:51.317Z,1.50
2018-06-01T16:23:18.017Z,1.80
2018-06-01T16:25:44.714Z,1.47
2018-06-01T16:28:11.452Z,1.60
2018-06-01T16:30:38.188Z,1.47
2018-06-01T16:33:04.928Z,1.50
2018-06-01T16:35:31.628Z,1.30
2018-06-01T16:37:58.341Z,1.53
2018-06-01T16:40:25.047Z,1.33
2018-06-01T16:42:52.593Z,1.70
2018-06-01T16:45:19.315Z,1.37
2018-06-01T16:47:46.016Z,1.50
2018-06-01T16:50:13.057Z,1.60
2018-06-01T16:52:39.755Z,1.33
2018-06-01T16:55:06.475Z,1.30
2018-06-01T16:57:33.238Z,1.40
2018-06-01T16:59:59.935Z,1.50
2018-06-01T17:02:26.636Z,1.50
2018-06-01T17:04:53.332Z,2.07
2018-06-01T17:07:20.036Z,1.57
2018-06-01T17:09:46.764Z,1.23
2018-06-01T17:12:13.712Z,1.57
2018-06-01T17:14:40.420Z,1.33
2018-06-01T17:17:07.116Z,1.63
2018-06-01T17:19:33.811Z,1.63
2018-06-01T17:22:00.543Z,1.50
2018-06-01T17:24:27.312Z,1.40
2018-06-01T17:26:54.016Z,1.40
2018-06-01T17:29:20.716Z,1.60
2018-06-01T17:31:47.420Z,1.48
2018-06-01T17:34:14.148Z,1.40
2018-06-01T17:36:40.918Z,1.33
2018-06-01T17:39:07.631Z,1.40
2018-06-01T17:41:34.382Z,1.45
2018-06-01T17:44:01.089Z,1.55
2018-06-01T17:46:27.819Z,1.40
2018-06-01T17:48:54.524Z,1.50
2018-06-01T17:51:21.232Z,1.50
2018-06-01T17:53:47.929Z,1.67
2018-06-01T17:56:14.627Z,1.70
2018-06-01T17:58:41.383Z,1.90
2018-06-01T18:01:08.083Z,1.70
2018-06-01T18:03:34.787Z,1.30
2018-06-01T18:06:01.488Z,1.50
2018-06-01T18:08:28.185Z,1.53
2018-06-01T18:10:54.916Z,1.70
2018-06-01T18:13:21.615Z,1.50
2018-06-01T18:15:48.320Z,2.00
2018-06-01T18:18:15.024Z,1.70
2018-06-01T18:20:41.724Z,1.40
2018-06-01T18:23:08.457Z,1.40
2018-06-01T18:25:35.151Z,1.50
2018-06-01T18:28:01.847Z,1.50
2018-06-01T18:30:28.685Z,1.27
2018-06-01T18:32:55.384Z,1.67
2018-06-01T18:35:22.107Z,1.77
2018-06-01T18:37:48.816Z,1.70
2018-06-01T18:40:15.519Z,1.50
2018-06-01T18:42:42.215Z,1.57
2018-06-01T18:45:08.923Z,1.20
2018-06-01T18:47:35.664Z,1.50
2018-06-01T18:50:02.392Z,1.40
2018-06-01T18:52:29.349Z,1.40
2018-06-01T18:54:56.062Z,1.53
2018-06-01T18:57:22.764Z,1.33
2018-06-01T18:59:49.496Z,1.30
2018-06-01T19:02:16.200Z,1.30
2018-06-01T19:04:42.941Z,1.47
2018-06-01T19:07:09.639Z,1.70
2018-06-01T19:09:36.339Z,1.23
2018-06-01T19:12:03.061Z,1.27
2018-06-01T19:14:29.781Z,1.40
2018-06-01T19:16:56.483Z,1.63
2018-06-01T19:19:23.188Z,1.40
2018-06-01T19:21:49.891Z,1.60
2018-06-01T19:24:16.636Z,1.63
2018-06-01T19:26:43.339Z,1.60
2018-06-01T19:29:10.059Z,1.60
2018-06-01T19:31:36.768Z,1.40
2018-06-01T19:34:03.471Z,1.80
2018-06-01T19:36:30.199Z,1.57
2018-06-01T19:38:56.918Z,1.60
2018-06-01T19:41:23.614Z,1.97
2018-06-01T19:43:50.307Z,1.70
2018-06-01T19:46:17.013Z,1.60
2018-06-01T19:48:43.756Z,1.93
2018-06-01T19:51:10.463Z,1.50
2018-06-01T19:53:37.200Z,2.03
2018-06-01T19:56:03.896Z,1.63
2018-06-01T19:58:30.603Z,1.70
2018-06-01T20:00:57.345Z,1.60
2018-06-01T20:03:24.047Z,1.60
2018-06-01T20:05:50.751Z,1.60
2018-06-01T20:08:17.449Z,1.57
2018-06-01T20:10:44.155Z,1.80
2018-06-01T20:13:10.962Z,1.80
2018-06-01T20:15:37.607Z,1.50
2018-06-01T20:18:04.332Z,1.60
2018-06-01T20:20:31.039Z,2.03
2018-06-01T20:22:57.740Z,1.63
2018-06-01T20:25:24.463Z,1.53
2018-06-01T20:27:51.171Z,1.40
2018-06-01T20:30:17.890Z,1.57
2018-06-01T20:32:44.630Z,1.30
2018-06-01T20:35:11.342Z,1.40
2018-06-01T20:37:38.106Z,1.47
2018-06-01T20:46:47.510Z,2.00
2018-06-01T20:49:14.212Z,1.70
2018-06-01T20:51:40.986Z,1.87
2018-06-01T20:54:07.691Z,1.60
2018-06-01T20:56:34.397Z,1.70
2018-06-01T20:59:01.116Z,1.90
2018-06-01T21:01:27.850Z,1.60
2018-06-01T21:03:54.595Z,1.73
2018-06-01T21:06:21.308Z,1.60
2018-06-01T21:08:48.007Z,1.80
2018-06-01T21:11:14.727Z,1.60
2018-06-01T21:13:41.440Z,1.83
2018-06-01T21:16:08.176Z,1.53
2018-06-01T21:18:34.899Z,1.50
2018-06-01T21:21:01.646Z,1.47
2018-06-01T21:23:28.353Z,1.70
2018-06-01T21:25:55.103Z,1.53
2018-06-01T21:28:21.869Z,3.10
2018-06-01T21:30:48.579Z,1.77
2018-06-01T21:33:15.322Z,1.80
2018-06-01T21:35:42.029Z,1.77
2018-06-01T21:38:08.736Z,1.80
2018-06-01T21:40:35.479Z,1.80
2018-06-01T21:43:02.351Z,1.83
2018-06-01T21:45:29.059Z,1.60
2018-06-01T21:47:55.762Z,1.73
2018-06-01T21:50:22.468Z,1.70
2018-06-01T21:52:49.204Z,1.70
2018-06-01T21:55:15.947Z,1.70
2018-06-01T21:57:42.659Z,2.10
2018-06-01T22:00:09.372Z,1.87
2018-06-01T22:02:36.072Z,1.70
2018-06-01T22:05:03.011Z,1.93
2018-06-01T22:07:29.711Z,1.90
2018-06-01T22:09:56.408Z,1.70
2018-06-01T22:12:23.111Z,1.83
2018-06-01T22:14:49.832Z,1.73
2018-06-01T22:17:16.613Z,1.70
2018-06-01T22:19:43.316Z,2.00
2018-06-01T22:22:10.015Z,1.60
2018-06-01T22:24:36.732Z,1.80
2018-06-01T22:27:03.675Z,2.20
2018-06-01T22:29:30.395Z,1.97
2018-06-01T22:31:57.104Z,1.50
2018-06-01T22:34:23.803Z,2.07
2018-06-01T22:36:50.507Z,1.90
2018-06-01T22:39:17.209Z,1.60
2018-06-01T22:41:43.939Z,1.90
2018-06-01T22:44:10.651Z,1.80
2018-06-01T22:46:37.368Z,1.83
2018-06-01T22:49:04.092Z,2.17
2018-06-01T22:51:30.787Z,1.70
2018-06-01T22:53:57.515Z,1.70
2018-06-01T22:56:24.222Z,2.10
2018-06-01T22:58:50.923Z,1.90
2018-06-01T23:01:17.625Z,1.80
2018-06-01T23:03:44.319Z,1.80
2018-06-01T23:06:11.055Z,1.90
2018-06-01T23:08:37.783Z,1.80
2018-06-01T23:11:04.494Z,1.80
2018-06-01T23:13:31.211Z,1.97
2018-06-01T23:15:57.915Z,1.90
2018-06-01T23:18:24.615Z,1.90
2018-06-01T23:20:51.348Z,1.90
2018-06-01T23:23:18.049Z,2.10
2018-06-01T23:25:44.751Z,1.83
2018-06-01T23:28:11.451Z,1.83
2018-06-01T23:30:38.152Z,2.00
2018-06-01T23:33:04.876Z,2.00
2018-06-01T23:35:31.574Z,2.30
2018-06-01T23:37:58.277Z,2.27
2018-06-01T23:40:24.990Z,2.03
2018-06-01T23:42:51.690Z,1.70
2018-06-01T23:45:18.416Z,1.73
2018-06-01T23:47:45.116Z,1.80
2018-06-01T23:50:11.819Z,1.90
2018-06-01T23:52:38.531Z,1.80
2018-06-01T23:55:05.231Z,1.80
2018-06-01T23:57:31.955Z,1.50
2018-06-01T23:59:58.655Z,1.80
